Date,TemperatureHighF,TemperatureAvgF,TemperatureLowF,DewpointHighF,DewpointAvgF,DewpointLowF,HumidityHigh,HumidityAvg,HumidityLow,PressureMaxIn,PressureMinIn,WindSpeedMaxMPH,WindSpeedAvgMPH,GustSpeedMaxMPH,PrecipitationSumIn
2013-3-1,71.3,53.2,33.7,30.4,24.8,14.3,71,39,13,30.34,30.15,22,2,22,0.00
2013-3-2,65.8,52.6,39.9,31.7,28.9,24.3,61,41,27,30.47,30.30,25,3,25,0.00
2013-3-3,75.8,56.8,36.9,44.8,35.0,27.6,72,47,23,30.32,30.00,24,4,24,0.00
2013-3-4,86.2,67.0,47.5,53.6,46.8,41.6,87,53,23,30.00,29.74,21,3,21,0.00
2013-3-5,66.7,57.3,42.7,54.7,30.7,15.6,89,41,18,30.40,29.80,33,7,33,0.00
2013-3-6,65.6,50.4,37.1,28.2,20.4,15.8,46,32,17,30.50,30.27,14,1,14,0.00
2013-3-7,72.1,57.5,41.3,55.6,46.6,29.0,86,68,47,30.28,30.11,22,4,22,0.00
2013-3-8,67.9,63.1,59.8,64.0,59.3,54.0,93,87,80,30.17,30.01,19,4,19,0.00
2013-3-9,75.8,66.9,63.0,67.2,63.1,59.7,96,88,72,30.04,29.63,26,6,26,0.06
2013-3-10,67.2,60.7,49.1,63.2,42.6,33.6,94,55,30,30.17,29.65,37,6,37,0.77
2013-3-11,70.4,54.3,37.8,35.4,30.6,24.5,78,45,22,30.24,30.04,20,3,20,0.00
2013-3-12,78.8,60.4,40.0,43.8,33.9,28.1,71,41,19,30.25,30.10,13,3,17,0.00
2013-3-13,76.5,62.4,47.0,48.3,41.8,38.5,83,50,27,30.46,30.25,18,2,18,0.00
2013-3-14,59.0,51.1,46.3,46.0,41.5,38.2,85,71,47,30.39,30.34,6,0,12,0.00
2013-3-25,60.6,49.2,39.0,26.4,21.5,13.6,58,36,17,30.43,30.19,6,2,19,0.00
2013-3-26,66.4,53.5,39.1,27.4,23.4,21.2,49,32,19,30.54,30.33,5,2,17,0.00
2013-3-27,66.5,56.0,42.4,49.8,40.7,30.2,72,57,43,30.37,30.19,8,4,30,0.00
2013-3-28,68.5,63.2,58.5,59.0,55.8,50.4,83,77,70,30.23,30.15,8,5,20,0.00
2013-3-29,76.3,67.5,58.6,60.6,58.3,56.0,93,74,52,30.20,30.06,9,4,19,0.00
2013-3-30,82.1,71.5,63.8,64.8,61.9,60.3,90,74,51,30.12,29.91,6,4,21,0.00
2013-3-31,81.1,67.0,62.9,65.6,61.1,59.0,91,82,57,29.98,29.84,27,2,27,0.04